»·PEaware :: N256Z KAVX-KRNO

N256Z :: KAVX-KRNO

FLIGHT INFORMATION

Flight Status: Arrived
Operator: Privately registered:
United States
More flights under this callsign
Pilot: Gregory A. (9731)
Aircraft: PIPER PA-46-500TP MALIBU MERIDIAN
(P46T)
More flights by this aircraft type
Origin: KAVX Catalina
United States
Destination: KRNO Reno/Tahoe Intl
United States
More flights between these airports :: More routes between these airports
Route: + FIM J7 FMG
File this flight plan on PilotEdge
Remarks:
Altitude:
(Current/Filed)
260ft
Speed:
(Current/Filed)
274kts
Departed: 08-Dec-18 11:50 AM
Arrived: 08-Dec-18 01:51 PM
Distance/Time
Traveled:
371nm/2:00
Distance/Time
To Go:
Arrived

Flight Plot

Page will automatically refresh every two minutes.

Flight plan parsing failed; only flown route is shown


Map Options




Map Legend


Flown Route
Filed Route
Departure Airport
Arrival Airport
Navaid (VOR, NDB)
Fix

Horizontal Profiles

Position Reports

Time Latitude Longitude Heading Altitude Ground
Speed
08-Dec-18 11:28 33.403479 -118.415914 145 1606ft 0kts
08-Dec-18 11:29 33.403479 -118.415914 145 1606ft 0kts
08-Dec-18 11:30 33.403479 -118.415914 145 1606ft 0kts
08-Dec-18 11:31 33.403479 -118.415914 145 1606ft 0kts
08-Dec-18 11:32 33.403479 -118.415914 145 1606ft 0kts
08-Dec-18 11:33 33.403479 -118.415914 145 1606ft 0kts
08-Dec-18 11:33 33.403479 -118.415914 145 1606ft 0kts
08-Dec-18 11:35 33.403478 -118.415913 145 1606ft 0kts
08-Dec-18 11:35 33.403477 -118.415912 145 1606ft 0kts
08-Dec-18 11:36 33.403475 -118.415911 145 1606ft 0kts
08-Dec-18 11:38 33.403473 -118.415909 145 1606ft 0kts
08-Dec-18 11:38 33.403472 -118.415908 145 1606ft 0kts
08-Dec-18 11:39 33.403471 -118.415907 145 1606ft 0kts
08-Dec-18 11:40 33.403469 -118.415906 145 1606ft 0kts
08-Dec-18 11:41 33.403468 -118.415905 145 1606ft 0kts
08-Dec-18 11:42 33.403466 -118.415904 145 1606ft 0kts
08-Dec-18 11:43 33.403465 -118.415902 145 1606ft 0kts
08-Dec-18 11:44 33.403462 -118.415900 145 1606ft 0kts
08-Dec-18 11:45 33.405013 -118.415038 48 1606ft 9kts
08-Dec-18 11:46 33.406871 -118.411931 53 1606ft 12kts
08-Dec-18 11:47 33.407170 -118.411546 350 1606ft 0kts
08-Dec-18 11:48 33.407209 -118.411554 349 1606ft 3kts
08-Dec-18 11:49 33.405001 -118.415819 235 1606ft 74kts
08-Dec-18 11:50 33.372939 -118.429593 214 2530ft 174kts
08-Dec-18 11:51 33.372962 -118.472999 343 4162ft 136kts
08-Dec-18 11:52 33.408603 -118.482270 348 6137ft 128kts
08-Dec-18 11:53 33.433330 -118.509332 306 8117ft 118kts
08-Dec-18 11:54 33.454241 -118.541247 308 10168ft 135kts
08-Dec-18 11:55 33.481115 -118.579560 310 12230ft 161kts
08-Dec-18 11:56 33.516202 -118.625045 311 13000ft 209kts
08-Dec-18 11:57 33.550952 -118.669824 311 13710ft 154kts
08-Dec-18 11:58 33.577039 -118.702752 311 15259ft 131kts
08-Dec-18 11:59 33.609076 -118.737282 322 16934ft 176kts
08-Dec-18 12:00 33.652209 -118.771208 327 18553ft 193kts
08-Dec-18 12:01 33.698436 -118.805494 322 20163ft 195kts
08-Dec-18 12:02 33.749519 -118.826915 350 21771ft 204kts
08-Dec-18 12:03 33.798439 -118.827500 352 23120ft 212kts
08-Dec-18 12:04 33.862439 -118.828088 352 23355ft 238kts
08-Dec-18 12:05 33.926609 -118.829874 339 23350ft 222kts
08-Dec-18 12:06 33.975120 -118.855377 339 23350ft 222kts
08-Dec-18 12:07 34.027647 -118.852792 3 24259ft 204kts
08-Dec-18 12:08 34.074290 -118.862664 309 25838ft 156kts
08-Dec-18 12:09 34.093452 -118.905845 291 26354ft 186kts
08-Dec-18 12:10 34.113831 -118.968812 295 26346ft 212kts
08-Dec-18 12:11 34.163568 -119.004107 358 26350ft 246kts
08-Dec-18 12:12 34.228247 -118.966999 23 26344ft 265kts
08-Dec-18 12:13 34.292451 -118.924146 22 26347ft 266kts
08-Dec-18 12:14 34.356786 -118.885624 344 26337ft 239kts
08-Dec-18 12:15 34.407517 -118.928855 315 26334ft 223kts
08-Dec-18 12:16 34.457156 -118.974922 318 26341ft 224kts
08-Dec-18 12:17 34.506462 -119.016720 318 27233ft 211kts
08-Dec-18 12:18 34.554829 -119.057021 318 28264ft 214kts
08-Dec-18 12:19 34.606125 -119.100962 318 28355ft 233kts
08-Dec-18 12:20 34.653731 -119.141837 318 28360ft 237kts
08-Dec-18 12:21 34.707636 -119.187477 318 28363ft 235kts
08-Dec-18 12:22 34.761177 -119.232557 318 28380ft 234kts
08-Dec-18 12:23 34.814591 -119.277569 318 28382ft 234kts
08-Dec-18 12:24 34.868237 -119.322864 318 28380ft 234kts
08-Dec-18 12:25 34.921772 -119.368105 318 28380ft 234kts
08-Dec-18 12:26 34.975331 -119.413391 318 28379ft 234kts
08-Dec-18 12:27 35.029089 -119.458824 318 28379ft 234kts
08-Dec-18 12:28 35.082798 -119.504149 318 28378ft 235kts
08-Dec-18 12:29 35.130853 -119.544550 318 28375ft 236kts
08-Dec-18 12:30 35.178984 -119.584676 319 28373ft 238kts
08-Dec-18 12:31 35.234623 -119.629077 323 28371ft 241kts
08-Dec-18 12:32 35.302594 -119.646994 346 28384ft 256kts
08-Dec-18 12:33 35.374332 -119.649878 350 28395ft 259kts
08-Dec-18 12:34 35.438640 -119.649615 351 28399ft 260kts
08-Dec-18 12:35 35.511393 -119.648339 351 28402ft 261kts
08-Dec-18 12:36 35.583980 -119.646728 351 28402ft 261kts
08-Dec-18 12:37 35.656964 -119.645029 351 28403ft 262kts
08-Dec-18 12:38 35.729762 -119.643283 351 28408ft 262kts
08-Dec-18 12:39 35.802841 -119.641508 351 28412ft 262kts
08-Dec-18 12:40 35.875742 -119.639727 351 28413ft 262kts
08-Dec-18 12:41 35.948668 -119.637929 351 28415ft 262kts
08-Dec-18 12:42 36.021846 -119.636107 351 28417ft 262kts
08-Dec-18 12:43 36.094865 -119.634299 351 28419ft 263kts
08-Dec-18 12:44 36.168098 -119.632448 351 28414ft 262kts
08-Dec-18 12:45 36.241007 -119.630578 351 28413ft 262kts
08-Dec-18 12:46 36.313911 -119.628698 351 28412ft 262kts
08-Dec-18 12:47 36.387046 -119.626798 351 28412ft 262kts
08-Dec-18 12:48 36.460148 -119.624868 351 28412ft 262kts
08-Dec-18 12:49 36.532995 -119.622919 351 28411ft 262kts
08-Dec-18 12:50 36.605726 -119.620908 351 28419ft 261kts
08-Dec-18 12:51 36.678540 -119.618830 351 28421ft 261kts
08-Dec-18 12:52 36.751049 -119.616699 351 28418ft 260kts
08-Dec-18 12:53 36.823658 -119.614434 351 28421ft 260kts
08-Dec-18 12:54 36.895962 -119.612001 351 28422ft 260kts
08-Dec-18 12:55 36.968306 -119.609207 351 28421ft 260kts
08-Dec-18 12:56 37.041000 -119.605435 352 28423ft 261kts
08-Dec-18 12:57 37.112952 -119.604452 345 28424ft 255kts
08-Dec-18 12:58 37.184235 -119.609700 347 28425ft 256kts
08-Dec-18 12:59 37.255687 -119.612705 348 28424ft 257kts
08-Dec-18 13:00 37.327282 -119.614860 348 28429ft 257kts
08-Dec-18 13:01 37.399186 -119.616766 348 28431ft 258kts
08-Dec-18 13:02 37.470947 -119.618605 348 28431ft 258kts
08-Dec-18 13:03 37.542982 -119.620419 348 28428ft 258kts
08-Dec-18 13:04 37.614776 -119.622208 348 28429ft 258kts
08-Dec-18 13:05 37.686523 -119.623981 348 28440ft 258kts
08-Dec-18 13:06 37.758539 -119.625775 348 28442ft 258kts
08-Dec-18 13:07 37.830106 -119.627501 348 28397ft 253kts
08-Dec-18 13:08 37.899934 -119.628770 349 27327ft 245kts
08-Dec-18 13:09 37.967222 -119.629568 349 26209ft 236kts
08-Dec-18 13:10 38.031550 -119.630206 349 25402ft 228kts
08-Dec-18 13:11 38.094883 -119.631214 349 24600ft 226kts
08-Dec-18 13:12 38.157888 -119.631266 351 23801ft 226kts
08-Dec-18 13:13 38.220079 -119.629337 351 22999ft 223kts
08-Dec-18 13:14 38.282082 -119.628074 351 22015ft 221kts
08-Dec-18 13:15 38.343452 -119.627543 352 21017ft 221kts
08-Dec-18 13:16 38.402891 -119.634396 348 20016ft 206kts
08-Dec-18 13:17 38.459390 -119.637577 350 19017ft 207kts
08-Dec-18 13:18 38.517506 -119.639734 351 18454ft 203kts
08-Dec-18 13:19 38.572180 -119.640375 351 18455ft 191kts
08-Dec-18 13:21 38.622541 -119.642126 350 18459ft 213kts
08-Dec-18 13:22 38.680384 -119.643929 351 18457ft 205kts
08-Dec-18 13:23 38.737700 -119.645268 351 18455ft 204kts
08-Dec-18 13:24 38.795446 -119.646843 352 17779ft 204kts
08-Dec-18 13:25 38.850744 -119.647572 352 16775ft 201kts
08-Dec-18 13:26 38.908410 -119.649486 352 15781ft 211kts
08-Dec-18 13:27 38.965180 -119.650773 355 14771ft 182kts
08-Dec-18 13:28 39.015867 -119.648352 357 13998ft 178kts
08-Dec-18 13:29 39.063625 -119.645136 357 13975ft 169kts
08-Dec-18 13:30 39.110486 -119.641876 357 13979ft 168kts
08-Dec-18 13:31 39.157025 -119.642436 350 13982ft 168kts
08-Dec-18 13:32 39.205007 -119.647287 350 13983ft 175kts
08-Dec-18 13:33 39.255114 -119.652740 350 13472ft 187kts
08-Dec-18 13:34 39.304655 -119.658782 350 12272ft 172kts
08-Dec-18 13:35 39.352802 -119.665471 352 11076ft 178kts
08-Dec-18 13:36 39.402925 -119.665583 359 10063ft 174kts
08-Dec-18 13:37 39.447433 -119.664815 359 10002ft 155kts
08-Dec-18 13:38 39.494405 -119.664133 359 9860ft 182kts
08-Dec-18 13:39 39.546501 -119.663879 359 9191ft 189kts
08-Dec-18 13:40 39.598087 -119.664247 359 9002ft 183kts
08-Dec-18 13:41 39.649076 -119.665642 358 9010ft 173kts
08-Dec-18 13:41 39.686900 -119.667085 358 9003ft 157kts
08-Dec-18 13:43 39.718125 -119.701025 271 9010ft 151kts
08-Dec-18 13:43 39.712093 -119.742860 206 9003ft 146kts
08-Dec-18 13:44 39.678498 -119.772304 171 8357ft 166kts
08-Dec-18 13:45 39.634747 -119.765630 184 7725ft 137kts
08-Dec-18 13:46 39.599281 -119.769493 181 6770ft 109kts
08-Dec-18 13:47 39.568902 -119.769211 178 5661ft 106kts
08-Dec-18 13:48 39.538817 -119.769080 180 5050ft 109kts
08-Dec-18 13:49 39.509189 -119.769310 178 4452ft 107kts
08-Dec-18 13:50 39.497362 -119.769955 267 4419ft 13kts
08-Dec-18 13:51 39.497351 -119.770380 268 4419ft 0kts

Navigation Log

Ident Type
Flight plan parsing failed, navigation log unavailable